createdAt,value
2018-12-20T00:01:22.778Z,28.47
2018-12-20T00:03:57.860Z,27.93
2018-12-20T00:06:28.766Z,28.27
2018-12-20T00:09:00.537Z,27.83
2018-12-20T00:11:33.151Z,28.47
2018-12-20T00:14:04.185Z,28.17
2018-12-20T00:16:54.115Z,26.90
2018-12-20T00:19:29.093Z,29.47
2018-12-20T00:22:02.007Z,27.17
2018-12-20T00:24:38.856Z,28.97
2018-12-20T00:27:10.473Z,28.70
2018-12-20T00:29:44.031Z,29.60
2018-12-20T00:32:15.165Z,27.77
2018-12-20T00:34:47.399Z,27.27
2018-12-20T00:37:26.654Z,29.10
2018-12-20T00:40:13.773Z,27.93
2018-12-20T00:42:44.127Z,30.23
2018-12-20T00:45:19.618Z,28.90
2018-12-20T00:47:55.572Z,28.07
2018-12-20T00:50:31.519Z,28.47
2018-12-20T00:53:19.637Z,28.57
2018-12-20T00:55:51.285Z,29.10
2018-12-20T00:58:46.201Z,30.47
2018-12-20T01:01:27.353Z,29.53
2018-12-20T01:04:02.778Z,29.53
2018-12-20T01:06:42.780Z,30.33
2018-12-20T01:09:22.739Z,31.73
2018-12-20T01:12:02.417Z,31.63
2018-12-20T01:14:50.867Z,31.73
2018-12-20T01:17:45.427Z,31.20
2018-12-20T01:20:22.986Z,29.17
2018-12-20T01:22:54.821Z,28.77
2018-12-20T01:25:27.737Z,29.97
2018-12-20T01:28:02.743Z,30.57
2018-12-20T01:30:36.177Z,28.57
2018-12-20T01:33:09.589Z,29.27
2018-12-20T01:35:42.049Z,28.40
2018-12-20T01:38:16.023Z,26.63
2018-12-20T01:40:48.227Z,28.07
2018-12-20T01:43:25.365Z,28.67
2018-12-20T01:45:57.501Z,28.17
2018-12-20T01:48:29.055Z,27.70
2018-12-20T01:51:01.884Z,28.50
2018-12-20T01:53:37.855Z,27.63
2018-12-20T01:56:14.926Z,30.17
2018-12-20T01:58:45.321Z,28.67
2018-12-20T02:01:15.699Z,29.57
2018-12-20T02:03:46.624Z,29.73
2018-12-20T02:06:22.493Z,31.77
2018-12-20T02:08:52.972Z,29.00
2018-12-20T02:11:24.045Z,29.63
2018-12-20T02:13:55.358Z,30.63
2018-12-20T02:16:26.011Z,30.27
2018-12-20T02:18:55.809Z,30.90
2018-12-20T02:21:26.898Z,29.53
2018-12-20T02:23:57.500Z,29.57
2018-12-20T02:26:28.618Z,29.50
2018-12-20T02:28:58.237Z,29.97
2018-12-20T02:31:29.478Z,28.97
2018-12-20T02:34:02.593Z,30.50
2018-12-20T02:36:35.859Z,28.97
2018-12-20T02:39:12.425Z,28.43
2018-12-20T02:41:43.578Z,28.83
2018-12-20T02:44:15.271Z,29.83
2018-12-20T02:46:45.024Z,29.00
2018-12-20T02:49:14.876Z,29.40
2018-12-20T02:51:46.347Z,29.27
2018-12-20T02:54:18.275Z,32.13
2018-12-20T02:56:48.810Z,30.93
2018-12-20T02:59:29.071Z,32.57
2018-12-20T03:01:58.816Z,30.47
2018-12-20T03:04:30.978Z,28.87
2018-12-20T03:07:01.073Z,28.87
2018-12-20T03:12:05.640Z,29.00
2018-12-20T03:14:38.709Z,29.27
2018-12-20T03:17:10.662Z,27.87
2018-12-20T03:19:41.004Z,27.20
2018-12-20T03:22:19.880Z,28.40
2018-12-20T03:24:53.265Z,27.77
2018-12-20T03:27:26.295Z,27.03
2018-12-20T03:29:58.517Z,28.67
2018-12-20T03:32:28.062Z,27.87
2018-12-20T03:34:58.646Z,28.63
2018-12-20T03:37:28.746Z,28.03
2018-12-20T03:40:03.611Z,27.93
2018-12-20T03:42:34.355Z,27.87
2018-12-20T03:45:09.936Z,26.83
2018-12-20T03:47:40.242Z,27.63
2018-12-20T03:50:10.702Z,27.80
2018-12-20T03:52:48.594Z,27.33
2018-12-20T03:55:25.114Z,27.53
2018-12-20T03:57:56.130Z,26.27
2018-12-20T04:00:33.731Z,26.77
2018-12-20T04:03:04.828Z,27.43
2018-12-20T04:05:36.910Z,27.40
2018-12-20T04:08:09.392Z,28.07
2018-12-20T04:10:41.622Z,27.37
2018-12-20T04:13:14.271Z,25.80
2018-12-20T04:15:46.128Z,26.50
2018-12-20T04:18:19.510Z,27.03
2018-12-20T04:20:49.889Z,26.90
2018-12-20T04:23:20.692Z,27.03
2018-12-20T04:25:52.304Z,27.80
2018-12-20T04:28:23.149Z,26.80
2018-12-20T04:30:53.151Z,27.83
2018-12-20T04:33:24.399Z,26.07
2018-12-20T04:35:57.515Z,27.07
2018-12-20T04:38:28.782Z,25.47
2018-12-20T04:41:01.636Z,27.10
2018-12-20T04:43:32.736Z,27.83
2018-12-20T04:46:03.894Z,28.00
2018-12-20T04:48:38.925Z,27.93
2018-12-20T04:51:09.557Z,28.43
2018-12-20T04:53:45.249Z,28.57
2018-12-20T04:56:17.686Z,29.00
2018-12-20T04:58:48.188Z,27.73
2018-12-20T05:01:17.640Z,26.70
2018-12-20T05:03:51.517Z,28.47
2018-12-20T05:06:27.898Z,26.17
2018-12-20T05:09:08.625Z,28.43
2018-12-20T05:11:48.302Z,26.93
2018-12-20T05:14:21.001Z,28.20
2018-12-20T05:16:54.053Z,26.93
2018-12-20T05:19:26.550Z,25.60
2018-12-20T05:21:57.070Z,28.27
2018-12-20T05:24:30.470Z,27.77
2018-12-20T05:27:05.979Z,28.93
2018-12-20T05:29:36.588Z,28.17
2018-12-20T05:32:10.501Z,29.40
2018-12-20T05:37:24.807Z,28.93
2018-12-20T05:39:57.904Z,27.43
2018-12-20T05:42:30.485Z,29.57
2018-12-20T05:45:09.057Z,29.30
2018-12-20T05:47:44.673Z,28.23
2018-12-20T05:50:18.923Z,28.53
2018-12-20T05:52:48.502Z,29.33
2018-12-20T05:55:23.818Z,28.17
2018-12-20T05:58:02.576Z,29.93
2018-12-20T06:00:35.766Z,27.80
2018-12-20T06:03:08.487Z,27.87
2018-12-20T06:05:39.797Z,28.83
2018-12-20T06:08:10.745Z,28.53
2018-12-20T06:13:25.720Z,29.10
2018-12-20T06:15:57.879Z,28.23
2018-12-20T06:18:30.438Z,28.30
2018-12-20T06:21:08.177Z,29.50
2018-12-20T06:23:39.099Z,29.27
2018-12-20T06:26:09.347Z,28.13
2018-12-20T06:28:39.185Z,28.30
2018-12-20T06:31:11.344Z,27.07
2018-12-20T06:33:40.978Z,27.27
2018-12-20T06:36:12.498Z,29.20
2018-12-20T06:38:46.681Z,28.53
2018-12-20T06:41:18.325Z,28.87
2018-12-20T06:43:53.077Z,27.97
2018-12-20T06:46:23.302Z,28.27
2018-12-20T06:48:57.925Z,30.30
2018-12-20T06:51:27.250Z,28.03
2018-12-20T06:53:57.467Z,30.37
2018-12-20T06:56:27.539Z,28.70
2018-12-20T06:59:05.772Z,29.60
2018-12-20T07:01:36.013Z,30.67
2018-12-20T07:04:06.011Z,30.40
2018-12-20T07:06:36.442Z,30.23
2018-12-20T07:09:14.196Z,31.73
2018-12-20T07:11:58.205Z,32.03
2018-12-20T07:14:28.819Z,31.20
2018-12-20T07:17:03.029Z,32.20
2018-12-20T07:19:34.491Z,34.20
2018-12-20T07:22:06.740Z,32.27
2018-12-20T07:28:04.149Z,30.63
2018-12-20T07:30:34.855Z,32.57
2018-12-20T07:33:07.743Z,31.77
2018-12-20T07:35:43.512Z,31.83
2018-12-20T07:38:19.227Z,32.47
2018-12-20T07:40:50.945Z,31.23
2018-12-20T07:43:23.479Z,31.23
2018-12-20T07:46:01.999Z,31.53
2018-12-20T07:48:32.263Z,29.33
2018-12-20T07:51:04.809Z,31.93
2018-12-20T07:53:38.712Z,32.57
2018-12-20T07:56:13.031Z,29.50
2018-12-20T08:01:22.661Z,30.97
2018-12-20T08:03:54.865Z,30.67
2018-12-20T08:06:26.584Z,29.50
2018-12-20T08:08:58.662Z,31.23
2018-12-20T08:11:34.882Z,29.40
2018-12-20T08:14:05.759Z,29.97
2018-12-20T08:16:45.856Z,29.97
2018-12-20T08:19:13.161Z,29.17
2018-12-20T08:21:49.959Z,31.03
2018-12-20T08:24:20.369Z,31.27
2018-12-20T08:26:53.123Z,32.03
2018-12-20T08:29:27.036Z,32.13
2018-12-20T08:31:57.486Z,31.07
2018-12-20T08:37:05.244Z,28.73
2018-12-20T08:39:46.594Z,32.80
2018-12-20T08:42:17.453Z,31.83
2018-12-20T08:44:50.445Z,29.60
2018-12-20T08:47:27.072Z,30.50
2018-12-20T08:49:56.953Z,31.47
2018-12-20T08:52:32.630Z,30.43
2018-12-20T08:55:10.560Z,31.27
2018-12-20T08:57:41.616Z,30.13
2018-12-20T09:00:11.283Z,29.80
2018-12-20T09:02:59.360Z,30.97
2018-12-20T09:05:29.947Z,29.60
2018-12-20T09:08:01.435Z,29.80
2018-12-20T09:10:35.084Z,29.93
2018-12-20T09:13:09.482Z,29.90
2018-12-20T09:15:40.871Z,29.27
2018-12-20T09:18:14.106Z,29.77
2018-12-20T09:20:43.930Z,30.30
2018-12-20T09:23:13.438Z,29.50
2018-12-20T09:25:43.717Z,28.37
2018-12-20T09:28:22.042Z,29.07
2018-12-20T09:30:51.599Z,29.53
2018-12-20T09:33:22.114Z,28.73
2018-12-20T09:35:56.328Z,31.00
2018-12-20T09:38:26.412Z,29.87
2018-12-20T09:40:57.192Z,29.63
2018-12-20T09:43:27.718Z,29.20
2018-12-20T09:45:57.207Z,29.70
2018-12-20T09:48:29.113Z,29.37
2018-12-20T09:50:59.058Z,29.87
2018-12-20T09:53:28.357Z,29.27
2018-12-20T09:55:58.471Z,31.23
2018-12-20T09:58:27.763Z,30.37
2018-12-20T10:00:58.119Z,31.07
2018-12-20T10:03:28.720Z,32.77
2018-12-20T10:06:02.585Z,31.57
2018-12-20T10:08:33.252Z,29.50
2018-12-20T10:11:03.726Z,30.80
2018-12-20T10:13:34.108Z,31.10
2018-12-20T10:16:06.794Z,32.77
2018-12-20T10:18:38.422Z,32.20
2018-12-20T10:21:12.959Z,30.80
2018-12-20T10:23:42.967Z,32.77
2018-12-20T10:26:12.255Z,30.80
2018-12-20T10:28:41.387Z,29.37
2018-12-20T10:31:10.872Z,30.03
2018-12-20T10:33:40.089Z,29.60
2018-12-20T10:36:09.158Z,30.00
2018-12-20T10:38:38.452Z,29.53
2018-12-20T10:41:07.685Z,29.50
2018-12-20T10:43:36.863Z,28.70
2018-12-20T10:46:06.408Z,29.20
2018-12-20T10:48:36.155Z,29.90
2018-12-20T10:51:05.998Z,29.13
2018-12-20T10:53:38.414Z,31.07
2018-12-20T10:56:07.799Z,29.77
2018-12-20T10:58:37.215Z,29.00
2018-12-20T11:01:11.928Z,31.13
2018-12-20T11:03:48.028Z,29.90
2018-12-20T11:06:23.137Z,30.90
2018-12-20T11:08:58.241Z,31.00
2018-12-20T11:11:32.449Z,31.53
2018-12-20T11:14:03.124Z,32.87
2018-12-20T11:16:48.419Z,33.70
2018-12-20T11:19:22.001Z,31.77
2018-12-20T11:22:04.736Z,32.53
2018-12-20T11:24:51.998Z,32.70
2018-12-20T11:30:38.931Z,34.97
2018-12-20T11:33:19.294Z,34.10
2018-12-20T11:35:49.838Z,34.90
2018-12-20T11:38:24.183Z,33.50
2018-12-20T11:40:58.147Z,34.07
2018-12-20T11:43:40.579Z,37.17
2018-12-20T11:49:08.771Z,36.00
2018-12-20T11:51:43.094Z,36.73
2018-12-20T11:54:18.504Z,37.10
2018-12-20T11:56:49.908Z,38.23
2018-12-20T12:02:30.684Z,38.67
2018-12-20T12:05:08.907Z,36.60
2018-12-20T12:07:54.070Z,35.43
2018-12-20T12:10:27.803Z,36.03
2018-12-20T12:13:10.646Z,36.37
2018-12-20T12:15:46.847Z,35.67
2018-12-20T12:18:18.130Z,34.40
2018-12-20T12:20:47.845Z,36.17
2018-12-20T12:23:24.651Z,35.73
2018-12-20T12:26:12.526Z,36.47
2018-12-20T12:28:49.104Z,35.90
2018-12-20T12:31:34.594Z,35.20
2018-12-20T12:34:13.343Z,33.53
2018-12-20T12:36:50.922Z,37.67
2018-12-20T12:39:20.411Z,35.87
2018-12-20T12:41:50.535Z,34.37
2018-12-20T12:44:21.746Z,36.40
2018-12-20T12:46:51.911Z,35.93
2018-12-20T12:49:26.606Z,34.27
2018-12-20T12:52:00.852Z,35.03
2018-12-20T12:54:36.852Z,37.57
2018-12-20T12:57:08.477Z,36.23
2018-12-20T12:59:39.571Z,36.00
2018-12-20T13:02:11.235Z,35.20
2018-12-20T13:04:40.979Z,36.07
2018-12-20T13:07:12.277Z,35.53
2018-12-20T13:09:41.777Z,34.93
2018-12-20T13:12:11.908Z,35.70
2018-12-20T13:14:41.823Z,35.67
2018-12-20T13:17:11.163Z,34.93
2018-12-20T13:19:42.025Z,36.03
2018-12-20T13:22:11.653Z,35.83
2018-12-20T13:24:41.103Z,36.30
2018-12-20T13:27:10.418Z,35.73
2018-12-20T13:29:39.640Z,38.07
2018-12-20T13:32:08.780Z,36.97
2018-12-20T13:34:43.010Z,35.10
2018-12-20T13:37:15.833Z,36.63
2018-12-20T13:39:43.458Z,35.73
2018-12-20T13:42:14.424Z,36.53
2018-12-20T13:44:43.784Z,37.07
2018-12-20T13:47:14.125Z,37.23
2018-12-20T13:49:45.958Z,34.37
2018-12-20T13:52:17.262Z,35.40
2018-12-20T13:55:04.038Z,33.80
2018-12-20T13:57:38.327Z,37.37
2018-12-20T14:02:47.544Z,36.43
2018-12-20T14:05:18.336Z,35.90
2018-12-20T14:07:47.789Z,33.87
2018-12-20T14:10:17.396Z,36.70
2018-12-20T14:12:48.441Z,37.07
2018-12-20T14:15:19.110Z,37.00
2018-12-20T14:17:51.443Z,36.63
2018-12-20T14:20:22.114Z,36.53
2018-12-20T14:22:52.487Z,38.93
2018-12-20T14:25:29.680Z,35.07
2018-12-20T14:28:00.474Z,37.83
2018-12-20T14:30:29.807Z,36.67
2018-12-20T14:32:59.484Z,37.07
2018-12-20T14:35:29.954Z,35.83
2018-12-20T14:37:59.365Z,38.17
2018-12-20T14:40:28.906Z,39.17
2018-12-20T14:42:58.783Z,37.73
2018-12-20T14:45:28.231Z,36.83
2018-12-20T14:47:57.733Z,37.70
2018-12-20T14:50:27.895Z,36.77
2018-12-20T14:52:57.500Z,37.97
2018-12-20T14:55:27.630Z,37.40
2018-12-20T14:57:59.289Z,35.63
2018-12-20T15:00:38.084Z,38.17
2018-12-20T15:03:10.575Z,37.07
2018-12-20T15:05:48.591Z,36.40
2018-12-20T15:08:38.194Z,35.13
2018-12-20T15:16:14.143Z,35.67
2018-12-20T15:18:54.748Z,37.60
2018-12-20T15:21:30.178Z,34.23
2018-12-20T15:24:06.927Z,34.00
2018-12-20T15:26:43.552Z,36.97
2018-12-20T15:29:20.887Z,36.60
2018-12-20T15:31:55.439Z,36.87
2018-12-20T15:34:36.388Z,38.00
2018-12-20T15:37:25.864Z,37.37
2018-12-20T15:40:04.892Z,35.77
2018-12-20T15:42:48.394Z,36.63
2018-12-20T15:45:44.100Z,36.20
2018-12-20T15:48:30.754Z,37.10
2018-12-20T15:51:13.568Z,35.60
2018-12-20T15:54:04.585Z,36.00
2018-12-20T16:06:47.043Z,36.07
2018-12-20T16:12:25.368Z,37.87
2018-12-20T16:18:13.858Z,35.67
2018-12-20T16:21:17.423Z,38.40
2018-12-20T16:36:54.091Z,38.20
2018-12-20T16:42:47.890Z,39.03
2018-12-20T16:45:29.798Z,39.07
2018-12-20T16:48:02.300Z,38.47
2018-12-20T16:50:42.410Z,38.93
2018-12-20T16:53:30.913Z,39.90
2018-12-20T16:56:19.406Z,36.80
2018-12-20T16:58:58.766Z,40.17
2018-12-20T17:01:38.660Z,40.53
2018-12-20T17:07:55.000Z,40.73
2018-12-20T17:10:24.887Z,42.33
2018-12-20T17:13:00.736Z,43.43
2018-12-20T17:15:33.710Z,43.23
2018-12-20T17:18:23.232Z,40.53
2018-12-20T17:23:46.504Z,39.67
2018-12-20T17:42:32.067Z,35.07
2018-12-20T17:45:10.353Z,42.10
2018-12-20T17:47:54.646Z,36.80
2018-12-20T17:50:30.094Z,40.73
2018-12-20T17:53:07.790Z,41.73
2018-12-20T17:55:45.400Z,39.17
2018-12-20T18:00:59.902Z,40.63
2018-12-20T18:03:40.255Z,38.37
2018-12-20T18:06:14.085Z,38.87
2018-12-20T18:08:49.310Z,41.43
2018-12-20T18:11:26.714Z,40.17
2018-12-20T18:13:59.824Z,39.30
2018-12-20T18:16:49.439Z,41.07
2018-12-20T18:19:41.074Z,43.27
2018-12-20T18:22:15.884Z,42.87
2018-12-20T18:31:04.114Z,42.90
2018-12-20T18:33:45.272Z,44.67
2018-12-20T18:36:25.341Z,43.67
2018-12-20T18:39:15.132Z,44.47
2018-12-20T18:41:50.464Z,45.97
2018-12-20T18:44:28.555Z,42.57
2018-12-20T18:47:04.419Z,45.17
2018-12-20T18:49:47.475Z,43.83
2018-12-20T18:52:15.569Z,44.70
2018-12-20T18:54:51.655Z,46.20
2018-12-20T18:57:25.746Z,46.00
2018-12-20T19:00:13.194Z,44.53
2018-12-20T19:03:05.748Z,47.43
2018-12-20T19:05:40.065Z,44.90
2018-12-20T19:08:14.620Z,45.87
2018-12-20T19:10:57.390Z,45.53
2018-12-20T19:13:33.997Z,45.80
2018-12-20T19:16:08.454Z,45.23
2018-12-20T19:18:42.914Z,44.57
2018-12-20T19:21:18.137Z,46.63
2018-12-20T19:23:54.196Z,43.33
2018-12-20T19:26:27.959Z,45.40
2018-12-20T19:28:58.658Z,42.07
2018-12-20T19:31:37.256Z,44.70
2018-12-20T19:34:10.491Z,44.73
2018-12-20T19:39:58.683Z,44.63
2018-12-20T19:42:34.966Z,42.00
2018-12-20T19:45:11.772Z,45.80
2018-12-20T19:47:51.492Z,44.43
2018-12-20T19:50:29.141Z,44.73
2018-12-20T19:53:06.698Z,44.47
2018-12-20T19:55:43.172Z,45.87
2018-12-20T19:58:22.073Z,44.00
2018-12-20T20:01:06.628Z,46.20
2018-12-20T20:03:39.980Z,46.33
2018-12-20T20:06:21.125Z,46.43
2018-12-20T20:09:04.491Z,46.03
2018-12-20T20:11:39.059Z,46.60
2018-12-20T20:14:19.271Z,45.80
2018-12-20T20:17:05.938Z,45.70
2018-12-20T20:19:37.424Z,41.30
2018-12-20T20:22:09.300Z,42.90
2018-12-20T20:24:40.174Z,43.37
2018-12-20T20:27:20.047Z,45.37
2018-12-20T20:35:39.898Z,44.97
2018-12-20T20:38:15.418Z,43.77
2018-12-20T20:41:02.679Z,45.70
2018-12-20T20:43:37.444Z,43.47
2018-12-20T20:46:16.581Z,39.33
2018-12-20T20:51:51.051Z,46.43
2018-12-20T20:54:21.481Z,49.93
2018-12-20T20:56:51.899Z,43.60
2018-12-20T20:59:23.140Z,47.33
2018-12-20T21:01:53.382Z,47.23
2018-12-20T21:04:27.499Z,46.20
2018-12-20T21:06:57.578Z,47.80
2018-12-20T21:09:31.330Z,46.33
2018-12-20T21:12:13.117Z,48.43
2018-12-20T21:14:54.333Z,46.07
2018-12-20T21:17:29.579Z,44.40
2018-12-20T21:22:40.376Z,44.97
2018-12-20T21:25:14.511Z,45.97
2018-12-20T21:27:54.104Z,44.40
2018-12-20T21:30:29.968Z,45.97
2018-12-20T21:33:02.936Z,44.07
2018-12-20T21:35:36.769Z,46.13
2018-12-20T21:38:13.700Z,46.60
2018-12-20T21:40:48.473Z,43.50
2018-12-20T21:43:22.083Z,42.67
2018-12-20T21:46:12.428Z,41.77
2018-12-20T21:48:51.561Z,42.13
2018-12-20T21:51:32.465Z,43.57
2018-12-20T21:54:09.355Z,44.87
2018-12-20T21:56:43.444Z,45.17
2018-12-20T21:59:39.365Z,42.50
2018-12-20T22:02:23.826Z,44.33
2018-12-20T22:05:09.614Z,44.23
2018-12-20T22:07:53.371Z,44.70
2018-12-20T22:13:26.522Z,41.33
2018-12-20T22:16:14.359Z,41.53
2018-12-20T22:18:59.018Z,39.30
2018-12-20T22:21:59.691Z,39.50
2018-12-20T22:24:43.845Z,38.13
2018-12-20T22:27:26.936Z,39.63
2018-12-20T22:33:23.095Z,39.17
2018-12-20T22:36:10.198Z,37.83
2018-12-20T22:38:51.714Z,38.10
2018-12-20T22:45:08.148Z,36.53
2018-12-20T22:47:51.180Z,35.23
2018-12-20T22:50:26.160Z,36.37
2018-12-20T22:53:12.487Z,34.73
2018-12-20T22:56:03.519Z,36.70
2018-12-20T22:58:49.860Z,36.37
2018-12-20T23:01:25.186Z,36.00
2018-12-20T23:03:55.378Z,37.00
2018-12-20T23:06:25.586Z,36.87
2018-12-20T23:08:58.155Z,36.47
2018-12-20T23:11:50.512Z,37.27
2018-12-20T23:17:59.904Z,38.07
2018-12-20T23:20:47.267Z,35.73
2018-12-20T23:23:34.905Z,35.90
2018-12-20T23:26:14.255Z,34.77
2018-12-20T23:28:54.919Z,34.47
2018-12-20T23:31:46.184Z,35.97
2018-12-20T23:36:54.752Z,36.87
2018-12-20T23:39:37.519Z,34.13
2018-12-20T23:42:16.159Z,35.87
2018-12-20T23:48:30.523Z,36.53
2018-12-20T23:51:13.437Z,33.53
2018-12-20T23:53:58.296Z,34.07
2018-12-20T23:56:40.351Z,34.73
2018-12-20T23:59:27.269Z,32.80
